sensor_id;sensor_type;location;lat;lon;timestamp;temperature;humidity
52509;DHT22;38420;53.150;6.370;2023-07-13T00:01:15;16.40;99.90
52509;DHT22;38420;53.150;6.370;2023-07-13T00:03:41;15.60;99.90
52509;DHT22;38420;53.150;6.370;2023-07-13T00:06:07;15.90;99.90
52509;DHT22;38420;53.150;6.370;2023-07-13T00:08:34;15.60;99.90
52509;DHT22;38420;53.150;6.370;2023-07-13T00:11:03;16.50;99.90
52509;DHT22;38420;53.150;6.370;2023-07-13T00:13:30;15.60;99.90
52509;DHT22;38420;53.150;6.370;2023-07-13T00:15:57;15.60;99.90
52509;DHT22;38420;53.150;6.370;2023-07-13T00:18:24;16.30;99.90
52509;DHT22;38420;53.150;6.370;2023-07-13T00:20:50;15.80;99.90
52509;DHT22;38420;53.150;6.370;2023-07-13T00:23:15;15.70;99.90
52509;DHT22;38420;53.150;6.370;2023-07-13T00:25:42;16.40;99.90
52509;DHT22;38420;53.150;6.370;2023-07-13T00:28:08;15.70;99.90
52509;DHT22;38420;53.150;6.370;2023-07-13T00:30:33;16.00;99.90
52509;DHT22;38420;53.150;6.370;2023-07-13T00:32:59;15.60;99.90
52509;DHT22;38420;53.150;6.370;2023-07-13T00:35:27;16.60;99.90
52509;DHT22;38420;53.150;6.370;2023-07-13T00:37:55;15.70;99.90
52509;DHT22;38420;53.150;6.370;2023-07-13T00:40:21;16.40;99.90
52509;DHT22;38420;53.150;6.370;2023-07-13T00:42:47;16.20;99.90
52509;DHT22;38420;53.150;6.370;2023-07-13T00:47:41;16.40;99.90
52509;DHT22;38420;53.150;6.370;2023-07-13T00:50:10;15.90;99.90
52509;DHT22;38420;53.150;6.370;2023-07-13T00:52:39;15.70;99.90
52509;DHT22;38420;53.150;6.370;2023-07-13T00:55:07;16.30;99.90
52509;DHT22;38420;53.150;6.370;2023-07-13T00:57:33;16.50;99.90
52509;DHT22;38420;53.150;6.370;2023-07-13T01:00:01;15.70;99.90
52509;DHT22;38420;53.150;6.370;2023-07-13T01:02:33;16.50;99.90
52509;DHT22;38420;53.150;6.370;2023-07-13T01:04:59;16.30;99.90
52509;DHT22;38420;53.150;6.370;2023-07-13T01:07:25;15.60;99.90
52509;DHT22;38420;53.150;6.370;2023-07-13T01:09:51;15.60;99.90
52509;DHT22;38420;53.150;6.370;2023-07-13T01:12:17;15.60;99.90
52509;DHT22;38420;53.150;6.370;2023-07-13T01:14:43;15.60;99.90
52509;DHT22;38420;53.150;6.370;2023-07-13T01:17:10;16.40;99.90
52509;DHT22;38420;53.150;6.370;2023-07-13T01:19:38;15.30;99.90
52509;DHT22;38420;53.150;6.370;2023-07-13T01:22:10;15.90;99.90
52509;DHT22;38420;53.150;6.370;2023-07-13T01:24:40;16.30;99.90
52509;DHT22;38420;53.150;6.370;2023-07-13T01:27:07;16.30;99.90
52509;DHT22;38420;53.150;6.370;2023-07-13T01:29:35;15.30;99.90
52509;DHT22;38420;53.150;6.370;2023-07-13T01:32:12;15.90;99.90
52509;DHT22;38420;53.150;6.370;2023-07-13T01:34:38;15.40;99.90
52509;DHT22;38420;53.150;6.370;2023-07-13T01:37:08;15.50;99.90
52509;DHT22;38420;53.150;6.370;2023-07-13T01:39:34;15.50;99.90
52509;DHT22;38420;53.150;6.370;2023-07-13T01:42:00;16.40;99.90
52509;DHT22;38420;53.150;6.370;2023-07-13T01:44:26;16.40;99.90
52509;DHT22;38420;53.150;6.370;2023-07-13T01:46:52;15.50;99.90
52509;DHT22;38420;53.150;6.370;2023-07-13T01:49:17;15.60;99.90
52509;DHT22;38420;53.150;6.370;2023-07-13T01:51:43;16.00;99.90
52509;DHT22;38420;53.150;6.370;2023-07-13T01:54:09;15.90;99.90
52509;DHT22;38420;53.150;6.370;2023-07-13T01:56:34;16.00;99.90
52509;DHT22;38420;53.150;6.370;2023-07-13T01:59:00;16.40;99.90
52509;DHT22;38420;53.150;6.370;2023-07-13T02:01:26;16.30;99.90
52509;DHT22;38420;53.150;6.370;2023-07-13T02:03:51;16.40;99.90
52509;DHT22;38420;53.150;6.370;2023-07-13T02:06:17;16.40;99.90
52509;DHT22;38420;53.150;6.370;2023-07-13T02:08:43;16.30;99.90
52509;DHT22;38420;53.150;6.370;2023-07-13T02:11:09;16.00;99.90
52509;DHT22;38420;53.150;6.370;2023-07-13T02:13:34;16.20;99.90
52509;DHT22;38420;53.150;6.370;2023-07-13T02:16:00;15.60;99.90
52509;DHT22;38420;53.150;6.370;2023-07-13T02:18:26;15.60;99.90
52509;DHT22;38420;53.150;6.370;2023-07-13T02:20:52;15.90;99.90
52509;DHT22;38420;53.150;6.370;2023-07-13T02:23:17;16.20;99.90
52509;DHT22;38420;53.150;6.370;2023-07-13T02:25:44;16.30;99.90
52509;DHT22;38420;53.150;6.370;2023-07-13T02:28:10;15.40;99.90
52509;DHT22;38420;53.150;6.370;2023-07-13T02:30:36;16.20;99.90
52509;DHT22;38420;53.150;6.370;2023-07-13T02:33:02;15.50;99.90
52509;DHT22;38420;53.150;6.370;2023-07-13T02:35:28;15.50;99.90
52509;DHT22;38420;53.150;6.370;2023-07-13T02:37:53;16.00;99.90
52509;DHT22;38420;53.150;6.370;2023-07-13T02:40:19;16.10;99.90
52509;DHT22;38420;53.150;6.370;2023-07-13T02:42:45;16.10;99.90
52509;DHT22;38420;53.150;6.370;2023-07-13T02:45:11;15.30;99.90
52509;DHT22;38420;53.150;6.370;2023-07-13T02:47:40;15.10;99.90
52509;DHT22;38420;53.150;6.370;2023-07-13T02:50:07;15.10;99.90
52509;DHT22;38420;53.150;6.370;2023-07-13T02:52:33;15.10;99.90
52509;DHT22;38420;53.150;6.370;2023-07-13T02:54:58;16.00;99.90
52509;DHT22;38420;53.150;6.370;2023-07-13T02:57:24;15.10;99.90
52509;DHT22;38420;53.150;6.370;2023-07-13T02:59:50;15.00;99.90
52509;DHT22;38420;53.150;6.370;2023-07-13T03:02:16;15.10;99.90
52509;DHT22;38420;53.150;6.370;2023-07-13T03:04:41;14.70;99.90
52509;DHT22;38420;53.150;6.370;2023-07-13T03:07:07;15.90;99.90
52509;DHT22;38420;53.150;6.370;2023-07-13T03:09:34;14.60;99.90
52509;DHT22;38420;53.150;6.370;2023-07-13T03:12:00;15.50;99.90
52509;DHT22;38420;53.150;6.370;2023-07-13T03:14:26;14.50;99.90
52509;DHT22;38420;53.150;6.370;2023-07-13T03:16:52;14.90;99.90
52509;DHT22;38420;53.150;6.370;2023-07-13T03:19:19;15.10;99.90
52509;DHT22;38420;53.150;6.370;2023-07-13T03:21:45;14.50;99.90
52509;DHT22;38420;53.150;6.370;2023-07-13T03:24:10;14.80;99.90
52509;DHT22;38420;53.150;6.370;2023-07-13T03:26:38;14.50;99.90
52509;DHT22;38420;53.150;6.370;2023-07-13T03:29:04;15.70;99.90
52509;DHT22;38420;53.150;6.370;2023-07-13T03:31:33;15.50;99.90
52509;DHT22;38420;53.150;6.370;2023-07-13T03:33:59;14.50;99.90
52509;DHT22;38420;53.150;6.370;2023-07-13T03:36:27;16.00;99.90
52509;DHT22;38420;53.150;6.370;2023-07-13T03:38:56;14.50;99.90
52509;DHT22;38420;53.150;6.370;2023-07-13T03:41:22;14.70;99.90
52509;DHT22;38420;53.150;6.370;2023-07-13T03:43:49;16.00;99.90
52509;DHT22;38420;53.150;6.370;2023-07-13T03:46:15;15.00;99.90
52509;DHT22;38420;53.150;6.370;2023-07-13T03:48:43;16.30;99.90
52509;DHT22;38420;53.150;6.370;2023-07-13T03:51:11;15.50;99.90
52509;DHT22;38420;53.150;6.370;2023-07-13T03:53:40;15.00;99.90
52509;DHT22;38420;53.150;6.370;2023-07-13T03:56:06;15.70;99.90
52509;DHT22;38420;53.150;6.370;2023-07-13T03:58:34;16.30;99.90
52509;DHT22;38420;53.150;6.370;2023-07-13T04:01:02;15.50;99.90
52509;DHT22;38420;53.150;6.370;2023-07-13T04:03:29;15.30;99.90
52509;DHT22;38420;53.150;6.370;2023-07-13T04:05:59;16.50;99.90
52509;DHT22;38420;53.150;6.370;2023-07-13T04:08:30;14.90;99.90
52509;DHT22;38420;53.150;6.370;2023-07-13T04:10:56;16.40;99.90
52509;DHT22;38420;53.150;6.370;2023-07-13T04:13:23;16.50;99.90
52509;DHT22;38420;53.150;6.370;2023-07-13T04:15:49;15.00;99.90
52509;DHT22;38420;53.150;6.370;2023-07-13T04:18:15;16.60;99.90
52509;DHT22;38420;53.150;6.370;2023-07-13T04:20:40;15.60;99.90
52509;DHT22;38420;53.150;6.370;2023-07-13T04:23:06;16.60;99.90
52509;DHT22;38420;53.150;6.370;2023-07-13T04:25:32;14.80;99.90
52509;DHT22;38420;53.150;6.370;2023-07-13T04:27:57;16.10;99.90
52509;DHT22;38420;53.150;6.370;2023-07-13T04:30:23;16.30;99.90
52509;DHT22;38420;53.150;6.370;2023-07-13T04:32:51;16.70;99.90
52509;DHT22;38420;53.150;6.370;2023-07-13T04:35:18;15.00;99.90
52509;DHT22;38420;53.150;6.370;2023-07-13T04:37:47;16.10;99.90
52509;DHT22;38420;53.150;6.370;2023-07-13T04:40:14;15.60;99.90
52509;DHT22;38420;53.150;6.370;2023-07-13T04:42:39;15.40;99.90
52509;DHT22;38420;53.150;6.370;2023-07-13T04:45:06;15.70;99.90
52509;DHT22;38420;53.150;6.370;2023-07-13T04:47:32;16.80;99.90
52509;DHT22;38420;53.150;6.370;2023-07-13T04:49:58;15.10;99.90
52509;DHT22;38420;53.150;6.370;2023-07-13T04:52:24;16.20;99.90
52509;DHT22;38420;53.150;6.370;2023-07-13T04:54:50;16.00;99.90
52509;DHT22;38420;53.150;6.370;2023-07-13T04:57:15;17.00;99.90
52509;DHT22;38420;53.150;6.370;2023-07-13T04:59:41;16.40;99.90
52509;DHT22;38420;53.150;6.370;2023-07-13T05:02:07;17.00;99.90
52509;DHT22;38420;53.150;6.370;2023-07-13T05:04:33;16.90;99.90
52509;DHT22;38420;53.150;6.370;2023-07-13T05:06:59;15.30;99.90
52509;DHT22;38420;53.150;6.370;2023-07-13T05:09:25;16.70;99.90
52509;DHT22;38420;53.150;6.370;2023-07-13T05:11:51;15.60;99.90
52509;DHT22;38420;53.150;6.370;2023-07-13T05:14:16;17.00;99.90
52509;DHT22;38420;53.150;6.370;2023-07-13T05:16:42;16.30;99.90
52509;DHT22;38420;53.150;6.370;2023-07-13T05:19:09;15.40;99.90
52509;DHT22;38420;53.150;6.370;2023-07-13T05:21:35;17.20;99.90
52509;DHT22;38420;53.150;6.370;2023-07-13T05:24:01;17.10;99.90
52509;DHT22;38420;53.150;6.370;2023-07-13T05:26:27;16.70;99.90
52509;DHT22;38420;53.150;6.370;2023-07-13T05:28:52;16.60;99.90
52509;DHT22;38420;53.150;6.370;2023-07-13T05:31:18;17.30;99.90
52509;DHT22;38420;53.150;6.370;2023-07-13T05:33:44;17.20;99.90
52509;DHT22;38420;53.150;6.370;2023-07-13T05:36:10;15.80;99.90
52509;DHT22;38420;53.150;6.370;2023-07-13T05:38:35;17.40;99.90
52509;DHT22;38420;53.150;6.370;2023-07-13T05:41:01;17.10;99.90
52509;DHT22;38420;53.150;6.370;2023-07-13T05:43:27;17.40;99.90
52509;DHT22;38420;53.150;6.370;2023-07-13T05:45:53;17.30;99.90
52509;DHT22;38420;53.150;6.370;2023-07-13T05:48:19;16.70;99.90
52509;DHT22;38420;53.150;6.370;2023-07-13T05:50:46;16.90;99.90
52509;DHT22;38420;53.150;6.370;2023-07-13T05:53:12;16.10;99.90
52509;DHT22;38420;53.150;6.370;2023-07-13T05:55:44;17.60;99.90
52509;DHT22;38420;53.150;6.370;2023-07-13T05:58:13;17.60;99.90
52509;DHT22;38420;53.150;6.370;2023-07-13T06:00:39;17.60;99.90
52509;DHT22;38420;53.150;6.370;2023-07-13T06:03:05;17.80;99.90
52509;DHT22;38420;53.150;6.370;2023-07-13T06:05:32;17.30;99.90
52509;DHT22;38420;53.150;6.370;2023-07-13T06:07:59;16.50;99.90
52509;DHT22;38420;53.150;6.370;2023-07-13T06:10:25;16.50;99.90
52509;DHT22;38420;53.150;6.370;2023-07-13T06:12:50;17.30;99.90
52509;DHT22;38420;53.150;6.370;2023-07-13T06:15:16;17.00;99.90
52509;DHT22;38420;53.150;6.370;2023-07-13T06:17:42;17.90;99.90
52509;DHT22;38420;53.150;6.370;2023-07-13T06:20:08;17.60;99.90
52509;DHT22;38420;53.150;6.370;2023-07-13T06:22:33;17.90;99.90
52509;DHT22;38420;53.150;6.370;2023-07-13T06:24:59;18.40;99.90
52509;DHT22;38420;53.150;6.370;2023-07-13T06:27:25;17.30;99.90
52509;DHT22;38420;53.150;6.370;2023-07-13T06:29:50;18.20;99.90
52509;DHT22;38420;53.150;6.370;2023-07-13T06:32:17;18.30;99.90
52509;DHT22;38420;53.150;6.370;2023-07-13T06:34:42;18.20;99.90
52509;DHT22;38420;53.150;6.370;2023-07-13T06:37:09;17.40;99.90
52509;DHT22;38420;53.150;6.370;2023-07-13T06:39:35;18.20;99.90
52509;DHT22;38420;53.150;6.370;2023-07-13T06:42:01;17.50;99.90
52509;DHT22;38420;53.150;6.370;2023-07-13T06:44:26;17.80;99.90
52509;DHT22;38420;53.150;6.370;2023-07-13T06:46:52;17.70;99.90
52509;DHT22;38420;53.150;6.370;2023-07-13T06:49:18;17.80;99.90
52509;DHT22;38420;53.150;6.370;2023-07-13T06:51:43;18.40;99.90
52509;DHT22;38420;53.150;6.370;2023-07-13T06:54:09;18.40;99.90
52509;DHT22;38420;53.150;6.370;2023-07-13T06:56:35;18.30;99.90
52509;DHT22;38420;53.150;6.370;2023-07-13T06:59:00;18.80;99.90
52509;DHT22;38420;53.150;6.370;2023-07-13T07:01:26;18.40;99.90
52509;DHT22;38420;53.150;6.370;2023-07-13T07:03:52;19.00;99.90
52509;DHT22;38420;53.150;6.370;2023-07-13T07:06:19;18.20;99.90
52509;DHT22;38420;53.150;6.370;2023-07-13T07:08:46;18.80;99.90
52509;DHT22;38420;53.150;6.370;2023-07-13T07:11:13;18.40;99.90
52509;DHT22;38420;53.150;6.370;2023-07-13T07:13:40;17.80;99.90
52509;DHT22;38420;53.150;6.370;2023-07-13T07:16:05;17.60;99.90
52509;DHT22;38420;53.150;6.370;2023-07-13T07:18:32;17.80;99.90
52509;DHT22;38420;53.150;6.370;2023-07-13T07:20:57;17.60;99.90
52509;DHT22;38420;53.150;6.370;2023-07-13T07:23:23;17.60;99.90
52509;DHT22;38420;53.150;6.370;2023-07-13T07:25:49;17.30;99.90
52509;DHT22;38420;53.150;6.370;2023-07-13T07:28:16;16.80;99.90
52509;DHT22;38420;53.150;6.370;2023-07-13T07:30:45;17.10;99.90
52509;DHT22;38420;53.150;6.370;2023-07-13T07:33:11;17.10;99.90
52509;DHT22;38420;53.150;6.370;2023-07-13T07:35:37;17.00;99.90
52509;DHT22;38420;53.150;6.370;2023-07-13T07:38:03;18.10;99.90
52509;DHT22;38420;53.150;6.370;2023-07-13T07:40:28;17.70;99.90
52509;DHT22;38420;53.150;6.370;2023-07-13T07:42:54;17.70;99.90
52509;DHT22;38420;53.150;6.370;2023-07-13T07:45:20;18.00;99.90
52509;DHT22;38420;53.150;6.370;2023-07-13T07:47:46;17.60;99.90
52509;DHT22;38420;53.150;6.370;2023-07-13T07:50:12;17.50;99.90
52509;DHT22;38420;53.150;6.370;2023-07-13T07:52:37;16.80;99.90
52509;DHT22;38420;53.150;6.370;2023-07-13T07:55:05;16.40;99.90
52509;DHT22;38420;53.150;6.370;2023-07-13T07:57:31;16.60;99.90
52509;DHT22;38420;53.150;6.370;2023-07-13T07:59:56;17.20;99.90
52509;DHT22;38420;53.150;6.370;2023-07-13T08:02:22;16.30;99.90
52509;DHT22;38420;53.150;6.370;2023-07-13T08:04:48;17.40;99.90
52509;DHT22;38420;53.150;6.370;2023-07-13T08:07:13;17.30;99.90
52509;DHT22;38420;53.150;6.370;2023-07-13T08:09:39;18.00;99.90
52509;DHT22;38420;53.150;6.370;2023-07-13T08:12:05;17.10;99.90
52509;DHT22;38420;53.150;6.370;2023-07-13T08:14:32;18.50;99.90
52509;DHT22;38420;53.150;6.370;2023-07-13T08:16:58;17.80;99.90
52509;DHT22;38420;53.150;6.370;2023-07-13T08:19:24;19.00;99.90
52509;DHT22;38420;53.150;6.370;2023-07-13T08:21:49;18.70;99.90
52509;DHT22;38420;53.150;6.370;2023-07-13T08:24:15;18.40;99.90
52509;DHT22;38420;53.150;6.370;2023-07-13T08:26:44;19.60;99.90
52509;DHT22;38420;53.150;6.370;2023-07-13T08:29:10;18.60;99.90
52509;DHT22;38420;53.150;6.370;2023-07-13T08:31:36;19.40;99.90
52509;DHT22;38420;53.150;6.370;2023-07-13T08:34:01;18.70;99.90
52509;DHT22;38420;53.150;6.370;2023-07-13T08:36:28;19.60;99.90
52509;DHT22;38420;53.150;6.370;2023-07-13T08:38:54;19.20;99.90
52509;DHT22;38420;53.150;6.370;2023-07-13T08:41:20;19.10;99.90
52509;DHT22;38420;53.150;6.370;2023-07-13T08:43:49;19.80;99.90
52509;DHT22;38420;53.150;6.370;2023-07-13T08:48:56;19.50;99.90
52509;DHT22;38420;53.150;6.370;2023-07-13T08:54:01;19.50;99.90
52509;DHT22;38420;53.150;6.370;2023-07-13T08:56:29;19.40;99.90
52509;DHT22;38420;53.150;6.370;2023-07-13T08:59:17;19.20;99.90
52509;DHT22;38420;53.150;6.370;2023-07-13T09:04:51;20.60;99.90
52509;DHT22;38420;53.150;6.370;2023-07-13T09:10:23;20.10;99.90
52509;DHT22;38420;53.150;6.370;2023-07-13T09:15:30;20.70;99.90
52509;DHT22;38420;53.150;6.370;2023-07-13T09:18:08;20.70;99.90
52509;DHT22;38420;53.150;6.370;2023-07-13T09:20:35;20.40;99.90
52509;DHT22;38420;53.150;6.370;2023-07-13T09:23:04;20.00;99.90
52509;DHT22;38420;53.150;6.370;2023-07-13T09:25:36;20.00;99.90
52509;DHT22;38420;53.150;6.370;2023-07-13T09:28:11;20.00;99.90
52509;DHT22;38420;53.150;6.370;2023-07-13T09:30:51;19.80;99.90
52509;DHT22;38420;53.150;6.370;2023-07-13T09:33:19;20.10;99.90
52509;DHT22;38420;53.150;6.370;2023-07-13T09:35:45;20.00;99.90
52509;DHT22;38420;53.150;6.370;2023-07-13T09:38:17;20.10;99.90
52509;DHT22;38420;53.150;6.370;2023-07-13T09:43:28;20.20;99.90
52509;DHT22;38420;53.150;6.370;2023-07-13T09:45:56;20.30;99.90
52509;DHT22;38420;53.150;6.370;2023-07-13T09:48:22;20.40;99.90
52509;DHT22;38420;53.150;6.370;2023-07-13T09:50:54;20.70;99.90
52509;DHT22;38420;53.150;6.370;2023-07-13T09:53:20;20.90;99.90
52509;DHT22;38420;53.150;6.370;2023-07-13T09:55:47;20.90;99.90
52509;DHT22;38420;53.150;6.370;2023-07-13T09:58:24;20.90;99.90
52509;DHT22;38420;53.150;6.370;2023-07-13T10:03:27;20.90;99.90
52509;DHT22;38420;53.150;6.370;2023-07-13T10:05:54;20.70;99.90
52509;DHT22;38420;53.150;6.370;2023-07-13T10:08:28;20.60;99.90
52509;DHT22;38420;53.150;6.370;2023-07-13T10:11:00;20.40;99.90
52509;DHT22;38420;53.150;6.370;2023-07-13T10:13:35;20.50;99.90
52509;DHT22;38420;53.150;6.370;2023-07-13T10:16:03;20.60;99.90
52509;DHT22;38420;53.150;6.370;2023-07-13T10:18:50;20.50;99.90
52509;DHT22;38420;53.150;6.370;2023-07-13T10:21:20;20.50;99.90
52509;DHT22;38420;53.150;6.370;2023-07-13T10:23:57;20.60;99.90
52509;DHT22;38420;53.150;6.370;2023-07-13T10:26:30;20.70;99.90
52509;DHT22;38420;53.150;6.370;2023-07-13T10:28:59;20.80;99.90
52509;DHT22;38420;53.150;6.370;2023-07-13T10:31:26;21.10;99.90
52509;DHT22;38420;53.150;6.370;2023-07-13T10:33:52;21.20;99.90
52509;DHT22;38420;53.150;6.370;2023-07-13T10:36:43;21.10;99.90
52509;DHT22;38420;53.150;6.370;2023-07-13T10:39:21;20.90;99.90
52509;DHT22;38420;53.150;6.370;2023-07-13T10:42:01;20.90;99.90
52509;DHT22;38420;53.150;6.370;2023-07-13T10:44:30;21.00;99.90
52509;DHT22;38420;53.150;6.370;2023-07-13T10:47:08;21.20;99.90
52509;DHT22;38420;53.150;6.370;2023-07-13T10:49:36;21.30;99.90
52509;DHT22;38420;53.150;6.370;2023-07-13T10:52:03;20.90;99.90
52509;DHT22;38420;53.150;6.370;2023-07-13T10:57:19;20.60;99.90
52509;DHT22;38420;53.150;6.370;2023-07-13T11:02:28;20.80;99.90
52509;DHT22;38420;53.150;6.370;2023-07-13T11:04:55;20.90;99.90
52509;DHT22;38420;53.150;6.370;2023-07-13T11:07:30;20.70;99.90
52509;DHT22;38420;53.150;6.370;2023-07-13T11:10:04;20.60;99.90
52509;DHT22;38420;53.150;6.370;2023-07-13T11:13:03;20.60;99.90
52509;DHT22;38420;53.150;6.370;2023-07-13T11:15:43;21.00;99.90
52509;DHT22;38420;53.150;6.370;2023-07-13T11:18:19;21.20;99.90
52509;DHT22;38420;53.150;6.370;2023-07-13T11:20:48;21.50;99.90
52509;DHT22;38420;53.150;6.370;2023-07-13T11:25:43;21.90;99.90
52509;DHT22;38420;53.150;6.370;2023-07-13T11:30:49;21.50;99.90
52509;DHT22;38420;53.150;6.370;2023-07-13T11:33:24;21.50;99.90
52509;DHT22;38420;53.150;6.370;2023-07-13T11:36:03;21.60;99.90
52509;DHT22;38420;53.150;6.370;2023-07-13T11:38:40;21.50;99.90
52509;DHT22;38420;53.150;6.370;2023-07-13T11:41:21;21.50;99.90
52509;DHT22;38420;53.150;6.370;2023-07-13T11:43:52;21.60;99.90
52509;DHT22;38420;53.150;6.370;2023-07-13T11:46:22;21.50;99.90
52509;DHT22;38420;53.150;6.370;2023-07-13T11:48:48;21.50;99.90
52509;DHT22;38420;53.150;6.370;2023-07-13T11:51:25;21.60;99.90
52509;DHT22;38420;53.150;6.370;2023-07-13T11:53:54;21.70;99.90
52509;DHT22;38420;53.150;6.370;2023-07-13T11:56:21;21.90;99.90
52509;DHT22;38420;53.150;6.370;2023-07-13T11:58:50;22.00;99.90
52509;DHT22;38420;53.150;6.370;2023-07-13T12:01:25;22.20;99.90
52509;DHT22;38420;53.150;6.370;2023-07-13T12:03:53;22.30;99.90
52509;DHT22;38420;53.150;6.370;2023-07-13T12:06:33;22.10;99.90
52509;DHT22;38420;53.150;6.370;2023-07-13T12:09:03;21.90;99.90
52509;DHT22;38420;53.150;6.370;2023-07-13T12:11:42;21.80;99.90
52509;DHT22;38420;53.150;6.370;2023-07-13T12:14:15;21.80;99.90
52509;DHT22;38420;53.150;6.370;2023-07-13T12:16:41;21.60;99.90
52509;DHT22;38420;53.150;6.370;2023-07-13T12:19:17;21.50;99.90
52509;DHT22;38420;53.150;6.370;2023-07-13T12:21:44;21.70;99.90
52509;DHT22;38420;53.150;6.370;2023-07-13T12:24:20;21.90;99.90
52509;DHT22;38420;53.150;6.370;2023-07-13T12:27:06;21.80;99.90
52509;DHT22;38420;53.150;6.370;2023-07-13T12:29:53;21.50;99.90
52509;DHT22;38420;53.150;6.370;2023-07-13T12:32:25;21.30;99.90
52509;DHT22;38420;53.150;6.370;2023-07-13T12:34:52;21.40;99.90
52509;DHT22;38420;53.150;6.370;2023-07-13T12:37:18;21.50;99.90
52509;DHT22;38420;53.150;6.370;2023-07-13T12:39:47;21.60;99.90
52509;DHT22;38420;53.150;6.370;2023-07-13T12:42:26;21.70;99.90
52509;DHT22;38420;53.150;6.370;2023-07-13T12:44:56;21.70;99.90
52509;DHT22;38420;53.150;6.370;2023-07-13T12:47:23;21.70;99.90
52509;DHT22;38420;53.150;6.370;2023-07-13T12:49:54;21.70;99.90
52509;DHT22;38420;53.150;6.370;2023-07-13T12:52:32;21.60;99.90
52509;DHT22;38420;53.150;6.370;2023-07-13T12:55:07;21.60;99.90
52509;DHT22;38420;53.150;6.370;2023-07-13T13:00:30;21.40;99.90
52509;DHT22;38420;53.150;6.370;2023-07-13T13:03:02;21.00;99.90
52509;DHT22;38420;53.150;6.370;2023-07-13T13:05:30;21.00;99.90
52509;DHT22;38420;53.150;6.370;2023-07-13T13:07:56;21.20;99.90
52509;DHT22;38420;53.150;6.370;2023-07-13T13:10:22;21.40;99.90
52509;DHT22;38420;53.150;6.370;2023-07-13T13:12:48;21.40;99.90
52509;DHT22;38420;53.150;6.370;2023-07-13T13:15:14;21.30;99.90
52509;DHT22;38420;53.150;6.370;2023-07-13T13:17:40;21.10;99.90
52509;DHT22;38420;53.150;6.370;2023-07-13T13:20:24;21.20;99.90
52509;DHT22;38420;53.150;6.370;2023-07-13T13:22:53;21.40;99.90
52509;DHT22;38420;53.150;6.370;2023-07-13T13:25:20;21.60;99.90
52509;DHT22;38420;53.150;6.370;2023-07-13T13:27:48;21.70;99.90
52509;DHT22;38420;53.150;6.370;2023-07-13T13:30:17;21.80;99.90
52509;DHT22;38420;53.150;6.370;2023-07-13T13:32:45;22.00;99.90
52509;DHT22;38420;53.150;6.370;2023-07-13T13:35:19;22.00;99.90
52509;DHT22;38420;53.150;6.370;2023-07-13T13:37:46;22.10;99.90
52509;DHT22;38420;53.150;6.370;2023-07-13T13:40:18;22.00;99.90
52509;DHT22;38420;53.150;6.370;2023-07-13T13:42:45;21.90;99.90
52509;DHT22;38420;53.150;6.370;2023-07-13T13:45:11;21.70;99.90
52509;DHT22;38420;53.150;6.370;2023-07-13T13:47:39;21.70;99.90
52509;DHT22;38420;53.150;6.370;2023-07-13T13:50:17;21.80;99.90
52509;DHT22;38420;53.150;6.370;2023-07-13T13:52:43;21.90;99.90
52509;DHT22;38420;53.150;6.370;2023-07-13T13:55:18;22.00;99.90
52509;DHT22;38420;53.150;6.370;2023-07-13T13:57:45;22.00;99.90
52509;DHT22;38420;53.150;6.370;2023-07-13T14:00:12;22.10;99.90
52509;DHT22;38420;53.150;6.370;2023-07-13T14:02:41;22.10;99.90
52509;DHT22;38420;53.150;6.370;2023-07-13T14:05:13;22.10;99.90
52509;DHT22;38420;53.150;6.370;2023-07-13T14:07:38;22.00;99.90
52509;DHT22;38420;53.150;6.370;2023-07-13T14:10:17;21.80;99.90
52509;DHT22;38420;53.150;6.370;2023-07-13T14:12:44;21.70;99.90
52509;DHT22;38420;53.150;6.370;2023-07-13T14:15:20;21.40;99.90
52509;DHT22;38420;53.150;6.370;2023-07-13T14:17:46;21.50;99.90
52509;DHT22;38420;53.150;6.370;2023-07-13T14:20:16;21.70;99.90
52509;DHT22;38420;53.150;6.370;2023-07-13T14:22:41;21.80;99.90
52509;DHT22;38420;53.150;6.370;2023-07-13T14:25:11;21.90;99.90
52509;DHT22;38420;53.150;6.370;2023-07-13T14:27:38;22.00;99.90
52509;DHT22;38420;53.150;6.370;2023-07-13T14:30:13;22.10;99.90
52509;DHT22;38420;53.150;6.370;2023-07-13T14:32:39;22.20;99.90
52509;DHT22;38420;53.150;6.370;2023-07-13T14:35:06;22.30;99.90
52509;DHT22;38420;53.150;6.370;2023-07-13T14:37:31;22.20;99.90
52509;DHT22;38420;53.150;6.370;2023-07-13T14:39:57;21.90;99.90
52509;DHT22;38420;53.150;6.370;2023-07-13T14:42:23;21.60;99.90
52509;DHT22;38420;53.150;6.370;2023-07-13T14:44:49;21.60;99.90
52509;DHT22;38420;53.150;6.370;2023-07-13T14:47:15;21.70;99.90
52509;DHT22;38420;53.150;6.370;2023-07-13T14:49:44;21.70;99.90
52509;DHT22;38420;53.150;6.370;2023-07-13T14:52:16;21.80;99.90
52509;DHT22;38420;53.150;6.370;2023-07-13T14:54:43;22.00;99.90
52509;DHT22;38420;53.150;6.370;2023-07-13T14:57:16;22.10;99.90
52509;DHT22;38420;53.150;6.370;2023-07-13T14:59:42;22.10;99.90
52509;DHT22;38420;53.150;6.370;2023-07-13T15:04:44;22.20;99.90
52509;DHT22;38420;53.150;6.370;2023-07-13T15:07:11;22.00;99.90
52509;DHT22;38420;53.150;6.370;2023-07-13T15:09:39;21.70;99.90
52509;DHT22;38420;53.150;6.370;2023-07-13T15:12:05;21.60;99.90
52509;DHT22;38420;53.150;6.370;2023-07-13T15:14:30;21.60;99.90
52509;DHT22;38420;53.150;6.370;2023-07-13T15:16:56;21.50;99.90
52509;DHT22;38420;53.150;6.370;2023-07-13T15:19:23;21.60;99.90
52509;DHT22;38420;53.150;6.370;2023-07-13T15:21:49;21.60;99.90
52509;DHT22;38420;53.150;6.370;2023-07-13T15:24:17;21.60;99.90
52509;DHT22;38420;53.150;6.370;2023-07-13T15:26:43;21.30;99.90
52509;DHT22;38420;53.150;6.370;2023-07-13T15:29:11;21.20;99.90
52509;DHT22;38420;53.150;6.370;2023-07-13T15:31:37;21.10;99.90
52509;DHT22;38420;53.150;6.370;2023-07-13T15:34:14;21.00;99.90
52509;DHT22;38420;53.150;6.370;2023-07-13T15:36:40;21.00;99.90
52509;DHT22;38420;53.150;6.370;2023-07-13T15:39:06;21.10;99.90
52509;DHT22;38420;53.150;6.370;2023-07-13T15:41:33;21.10;99.90
52509;DHT22;38420;53.150;6.370;2023-07-13T15:44:00;21.20;99.90
52509;DHT22;38420;53.150;6.370;2023-07-13T15:46:30;21.10;99.90
52509;DHT22;38420;53.150;6.370;2023-07-13T15:48:57;21.00;99.90
52509;DHT22;38420;53.150;6.370;2023-07-13T15:51:28;20.90;99.90
52509;DHT22;38420;53.150;6.370;2023-07-13T15:53:54;20.80;99.90
52509;DHT22;38420;53.150;6.370;2023-07-13T15:56:24;20.90;99.90
52509;DHT22;38420;53.150;6.370;2023-07-13T15:58:51;20.90;99.90
52509;DHT22;38420;53.150;6.370;2023-07-13T16:01:18;21.00;99.90
52509;DHT22;38420;53.150;6.370;2023-07-13T16:03:45;21.00;99.90
52509;DHT22;38420;53.150;6.370;2023-07-13T16:06:34;21.00;99.90
52509;DHT22;38420;53.150;6.370;2023-07-13T16:09:02;21.00;99.90
52509;DHT22;38420;53.150;6.370;2023-07-13T16:11:33;20.90;99.90
52509;DHT22;38420;53.150;6.370;2023-07-13T16:13:59;21.00;99.90